createdAt,value
2018-11-07T00:00:04.760Z,12.20
2018-11-07T00:02:34.249Z,12.10
2018-11-07T00:05:03.258Z,12.10
2018-11-07T00:07:32.361Z,12.10
2018-11-07T00:10:00.920Z,12.00
2018-11-07T00:12:30.400Z,11.90
2018-11-07T00:14:59.317Z,11.90
2018-11-07T00:17:28.332Z,11.80
2018-11-07T00:19:57.353Z,11.70
2018-11-07T00:22:26.359Z,11.60
2018-11-07T00:24:55.562Z,11.60
2018-11-07T00:27:24.095Z,11.50
2018-11-07T00:29:53.420Z,11.50
2018-11-07T00:32:22.667Z,11.50
2018-11-07T00:34:52.054Z,11.50
2018-11-07T00:37:21.914Z,11.50
2018-11-07T00:39:50.896Z,11.50
2018-11-07T00:42:20.002Z,11.60
2018-11-07T00:44:49.060Z,11.60
2018-11-07T00:47:17.940Z,11.60
2018-11-07T00:49:47.322Z,11.60
2018-11-07T00:52:15.841Z,11.60
2018-11-07T00:54:44.936Z,11.60
2018-11-07T00:57:14.066Z,11.60
2018-11-07T00:59:43.071Z,11.60
2018-11-07T01:02:12.638Z,11.60
2018-11-07T01:04:42.008Z,11.60
2018-11-07T01:07:11.455Z,11.50
2018-11-07T01:09:40.682Z,11.50
2018-11-07T01:12:09.816Z,11.40
2018-11-07T01:14:39.081Z,11.30
2018-11-07T01:17:07.892Z,11.30
2018-11-07T01:19:37.360Z,11.30
2018-11-07T01:22:07.383Z,11.30
2018-11-07T01:24:36.298Z,11.30
2018-11-07T01:27:05.993Z,11.20
2018-11-07T01:29:34.951Z,11.20
2018-11-07T01:32:03.598Z,11.20
2018-11-07T01:34:32.948Z,11.20
2018-11-07T01:37:01.967Z,11.20
2018-11-07T01:39:31.054Z,11.20
2018-11-07T01:41:59.871Z,11.10
2018-11-07T01:44:28.892Z,11.10
2018-11-07T01:46:58.350Z,11.10
2018-11-07T01:49:27.029Z,11.10
2018-11-07T01:51:56.312Z,11.00
2018-11-07T01:54:25.282Z,11.00
2018-11-07T01:56:54.484Z,10.90
2018-11-07T01:59:23.763Z,10.90
2018-11-07T02:01:52.360Z,10.90
2018-11-07T02:04:22.002Z,10.80
2018-11-07T02:06:50.546Z,10.80
2018-11-07T02:09:19.076Z,10.80
2018-11-07T02:11:47.562Z,10.80
2018-11-07T02:14:16.044Z,10.80
2018-11-07T02:16:44.976Z,10.70
2018-11-07T02:19:13.456Z,10.70
2018-11-07T02:21:42.071Z,10.70
2018-11-07T02:24:10.570Z,10.70
2018-11-07T02:26:39.212Z,10.60
2018-11-07T02:29:13.456Z,10.60
2018-11-07T02:31:43.846Z,10.60
2018-11-07T02:34:12.970Z,10.60
2018-11-07T02:36:41.825Z,10.60
2018-11-07T02:39:12.252Z,10.60
2018-11-07T02:41:41.173Z,10.50
2018-11-07T02:44:10.544Z,10.50
2018-11-07T02:46:39.271Z,10.50
2018-11-07T02:49:07.782Z,10.40
2018-11-07T02:51:36.320Z,10.40
2018-11-07T02:54:04.808Z,10.40
2018-11-07T02:56:33.565Z,10.30
2018-11-07T02:59:02.189Z,10.30
2018-11-07T03:01:30.699Z,10.30
2018-11-07T03:03:59.395Z,10.30
2018-11-07T03:06:27.899Z,10.20
2018-11-07T03:08:56.607Z,10.20
2018-11-07T03:11:25.116Z,10.20
2018-11-07T03:13:53.612Z,10.20
2018-11-07T03:16:22.173Z,10.10
2018-11-07T03:18:50.920Z,10.10
2018-11-07T03:21:19.452Z,10.10
2018-11-07T03:23:47.984Z,10.10
2018-11-07T03:26:16.526Z,10.10
2018-11-07T03:28:45.154Z,10.00
2018-11-07T03:31:13.667Z,10.10
2018-11-07T03:33:42.235Z,10.00
2018-11-07T03:36:10.746Z,10.00
2018-11-07T03:38:39.355Z,10.00
2018-11-07T03:41:07.826Z,10.00
2018-11-07T03:43:36.489Z,10.00
2018-11-07T03:46:05.034Z,10.00
2018-11-07T03:48:33.515Z,10.00
2018-11-07T03:51:02.232Z,10.00
2018-11-07T03:53:30.741Z,10.00
2018-11-07T03:55:59.288Z,9.90
2018-11-07T03:58:27.783Z,10.00
2018-11-07T04:00:56.259Z,10.00
2018-11-07T04:03:24.723Z,10.00
2018-11-07T04:05:53.239Z,10.00
2018-11-07T04:08:21.744Z,10.00
2018-11-07T04:10:50.229Z,10.00
2018-11-07T04:13:18.722Z,10.10
2018-11-07T04:15:47.300Z,10.10
2018-11-07T04:18:15.795Z,10.10
2018-11-07T04:20:44.338Z,10.10
2018-11-07T04:23:12.847Z,10.10
2018-11-07T04:25:41.328Z,10.10
2018-11-07T04:28:09.833Z,10.10
2018-11-07T04:30:38.397Z,10.10
2018-11-07T04:33:06.935Z,10.10
2018-11-07T04:35:35.427Z,10.10
2018-11-07T04:38:04.030Z,10.10
2018-11-07T04:40:32.509Z,10.10
2018-11-07T04:43:01.003Z,10.10
2018-11-07T04:45:29.497Z,10.10
2018-11-07T04:47:57.965Z,10.20
2018-11-07T04:50:26.431Z,10.20
2018-11-07T04:52:54.923Z,10.20
2018-11-07T04:55:23.397Z,10.20
2018-11-07T04:57:51.876Z,10.20
2018-11-07T05:00:21.136Z,10.20
2018-11-07T05:02:49.547Z,10.30
2018-11-07T05:05:18.078Z,10.30
2018-11-07T05:07:46.576Z,10.40
2018-11-07T05:10:15.051Z,10.40
2018-11-07T05:12:43.579Z,10.50
2018-11-07T05:15:12.019Z,10.50
2018-11-07T05:17:40.633Z,10.50
2018-11-07T05:20:10.201Z,10.50
2018-11-07T05:22:38.879Z,10.50
2018-11-07T05:25:08.035Z,10.50
2018-11-07T05:27:36.539Z,10.60
2018-11-07T05:30:06.269Z,10.60
2018-11-07T05:32:34.763Z,10.50
2018-11-07T05:35:03.227Z,10.50
2018-11-07T05:37:31.766Z,10.60
2018-11-07T05:40:00.229Z,10.50
2018-11-07T05:42:28.737Z,10.50
2018-11-07T05:44:57.238Z,10.60
2018-11-07T05:47:26.885Z,10.70
2018-11-07T05:49:55.425Z,10.70
2018-11-07T05:52:23.961Z,10.80
2018-11-07T05:54:52.659Z,10.80
2018-11-07T05:57:21.124Z,10.90
2018-11-07T05:59:49.645Z,10.90
2018-11-07T06:02:18.168Z,10.90
2018-11-07T06:04:46.641Z,10.90
2018-11-07T06:07:15.127Z,10.80
2018-11-07T06:09:43.665Z,10.80
2018-11-07T06:12:12.333Z,10.80
2018-11-07T06:14:40.839Z,10.80
2018-11-07T06:17:09.359Z,10.80
2018-11-07T06:19:37.831Z,10.80
2018-11-07T06:22:06.396Z,10.80
2018-11-07T06:24:34.901Z,10.80
2018-11-07T06:27:03.453Z,10.80
2018-11-07T06:29:31.927Z,10.80
2018-11-07T06:32:00.419Z,10.80
2018-11-07T06:34:29.205Z,10.80
2018-11-07T06:36:57.690Z,10.90
2018-11-07T06:39:26.177Z,10.90
2018-11-07T06:41:54.699Z,11.00
2018-11-07T06:44:23.219Z,11.00
2018-11-07T06:46:51.825Z,11.00
2018-11-07T06:49:20.337Z,11.00
2018-11-07T06:51:48.963Z,11.00
2018-11-07T06:54:17.471Z,11.10
2018-11-07T06:56:45.941Z,11.10
2018-11-07T06:59:14.584Z,11.10
2018-11-07T07:01:44.397Z,11.10
2018-11-07T07:04:12.899Z,11.10
2018-11-07T07:06:41.460Z,11.20
2018-11-07T07:09:10.833Z,11.20
2018-11-07T07:11:39.716Z,11.20
2018-11-07T07:14:08.974Z,11.30
2018-11-07T07:16:37.517Z,11.30
2018-11-07T07:19:06.192Z,11.30
2018-11-07T07:21:34.716Z,11.40
2018-11-07T07:24:03.363Z,11.40
2018-11-07T07:26:32.260Z,11.40
2018-11-07T07:29:00.748Z,11.40
2018-11-07T07:31:29.242Z,11.40
2018-11-07T07:33:57.789Z,11.40
2018-11-07T07:36:26.281Z,11.50
2018-11-07T07:38:54.805Z,11.50
2018-11-07T07:41:23.314Z,11.50
2018-11-07T07:43:51.837Z,11.50
2018-11-07T07:46:20.312Z,11.60
2018-11-07T07:48:48.784Z,11.60
2018-11-07T07:51:17.278Z,11.60
2018-11-07T07:53:45.794Z,11.50
2018-11-07T07:56:14.290Z,11.50
2018-11-07T07:58:42.984Z,11.40
2018-11-07T08:01:11.510Z,11.30
2018-11-07T08:03:40.612Z,11.30
2018-11-07T08:06:09.198Z,11.30
2018-11-07T08:08:37.706Z,11.30
2018-11-07T08:11:06.268Z,11.30
2018-11-07T08:13:35.016Z,11.30
2018-11-07T08:16:03.414Z,11.30
2018-11-07T08:18:31.893Z,11.30
2018-11-07T08:21:00.702Z,11.20
2018-11-07T08:23:29.168Z,11.20
2018-11-07T08:25:57.656Z,11.20
2018-11-07T08:28:26.252Z,11.30
2018-11-07T08:30:54.986Z,11.30
2018-11-07T08:33:23.744Z,11.30
2018-11-07T08:35:52.256Z,11.40
2018-11-07T08:38:20.849Z,11.40
2018-11-07T08:40:49.360Z,11.40
2018-11-07T08:43:17.838Z,11.40
2018-11-07T08:45:46.319Z,11.40
2018-11-07T08:48:14.873Z,11.50
2018-11-07T08:50:43.264Z,11.50
2018-11-07T08:53:11.946Z,11.50
2018-11-07T08:55:40.669Z,11.60
2018-11-07T08:58:09.289Z,11.70
2018-11-07T09:00:37.825Z,11.70
2018-11-07T09:03:06.330Z,11.80
2018-11-07T09:05:35.004Z,11.80
2018-11-07T09:08:04.366Z,11.90
2018-11-07T09:10:32.850Z,11.90
2018-11-07T09:13:01.330Z,11.90
2018-11-07T09:15:29.828Z,12.00
2018-11-07T09:17:58.510Z,12.00
2018-11-07T09:20:27.033Z,12.10
2018-11-07T09:22:55.819Z,12.10
2018-11-07T09:25:24.316Z,12.10
2018-11-07T09:27:52.800Z,12.20
2018-11-07T09:30:22.629Z,12.20
2018-11-07T09:32:51.149Z,12.10
2018-11-07T09:35:20.365Z,12.00
2018-11-07T09:37:49.061Z,12.00
2018-11-07T09:40:19.167Z,12.00
2018-11-07T09:42:48.386Z,11.90
2018-11-07T09:45:18.578Z,11.80
2018-11-07T09:47:48.132Z,11.70
2018-11-07T09:50:17.387Z,11.60
2018-11-07T09:52:46.073Z,11.60
2018-11-07T09:55:15.995Z,11.50
2018-11-07T09:57:44.870Z,11.50
2018-11-07T10:00:15.085Z,11.40
2018-11-07T10:02:44.302Z,11.30
2018-11-07T10:05:14.021Z,11.20
2018-11-07T10:07:42.569Z,11.20
2018-11-07T10:10:14.361Z,11.10
2018-11-07T10:12:43.327Z,11.10
2018-11-07T10:15:12.440Z,11.20
2018-11-07T10:17:40.985Z,11.10
2018-11-07T10:20:12.677Z,11.10
2018-11-07T10:22:41.785Z,11.20
2018-11-07T10:25:11.082Z,11.20
2018-11-07T10:27:39.798Z,11.20
2018-11-07T10:30:10.485Z,11.20
2018-11-07T10:32:38.989Z,11.20
2018-11-07T10:35:08.147Z,11.20
2018-11-07T10:37:36.772Z,11.30
2018-11-07T10:40:09.699Z,11.30
2018-11-07T10:42:38.221Z,11.30
2018-11-07T10:45:07.329Z,11.30
2018-11-07T10:47:36.137Z,11.30
2018-11-07T10:50:05.576Z,11.40
2018-11-07T10:52:34.061Z,11.40
2018-11-07T10:55:02.605Z,11.40
2018-11-07T10:57:31.092Z,11.40
2018-11-07T10:59:59.851Z,11.40
2018-11-07T11:02:33.595Z,11.40
2018-11-07T11:05:02.147Z,11.50
2018-11-07T11:07:30.611Z,11.50
2018-11-07T11:09:59.210Z,11.50
2018-11-07T11:12:28.285Z,11.60
2018-11-07T11:14:56.785Z,11.60
2018-11-07T11:17:25.272Z,11.60
2018-11-07T11:19:53.747Z,11.60
2018-11-07T11:22:22.264Z,11.70
2018-11-07T11:24:50.802Z,11.70
2018-11-07T11:27:19.388Z,11.70
2018-11-07T11:29:48.185Z,11.70
2018-11-07T11:32:16.855Z,11.70
2018-11-07T11:34:45.371Z,11.70
2018-11-07T11:37:13.865Z,11.80
2018-11-07T11:39:42.456Z,11.70
2018-11-07T11:42:11.331Z,11.70
2018-11-07T11:44:39.987Z,11.70
2018-11-07T11:47:08.477Z,11.70
2018-11-07T11:49:37.049Z,11.70
2018-11-07T11:52:05.585Z,11.70
2018-11-07T11:54:34.045Z,11.70
2018-11-07T11:57:02.607Z,11.70
2018-11-07T11:59:31.260Z,11.70
2018-11-07T12:01:59.645Z,11.70
2018-11-07T12:04:28.145Z,11.70
2018-11-07T12:06:56.787Z,11.80
2018-11-07T12:09:25.535Z,11.80
2018-11-07T12:11:54.078Z,11.90
2018-11-07T12:14:22.603Z,11.90
2018-11-07T12:16:51.289Z,11.90
2018-11-07T12:19:20.024Z,12.00
2018-11-07T12:21:48.556Z,12.00
2018-11-07T12:24:17.109Z,12.00
2018-11-07T12:26:45.721Z,12.10
2018-11-07T12:29:14.209Z,12.10
2018-11-07T12:31:43.181Z,12.10
2018-11-07T12:34:11.792Z,12.20
2018-11-07T12:36:40.334Z,12.20
2018-11-07T12:39:09.551Z,12.10
2018-11-07T12:41:38.224Z,12.10
2018-11-07T12:44:06.818Z,12.10
2018-11-07T12:46:35.338Z,12.10
2018-11-07T12:49:03.852Z,12.10
2018-11-07T12:51:32.577Z,12.10
2018-11-07T12:54:01.223Z,12.00
2018-11-07T12:56:29.754Z,12.00
2018-11-07T12:58:58.316Z,12.00
2018-11-07T13:01:26.864Z,12.00
2018-11-07T13:03:55.438Z,12.00
2018-11-07T13:06:23.941Z,12.00
2018-11-07T13:08:52.467Z,12.00
2018-11-07T13:11:21.083Z,12.00
2018-11-07T13:13:49.545Z,12.00
2018-11-07T13:16:18.211Z,12.00
2018-11-07T13:18:46.690Z,12.00
2018-11-07T13:21:15.190Z,12.00
2018-11-07T13:23:43.714Z,12.00
2018-11-07T13:26:12.446Z,12.10
2018-11-07T13:28:41.603Z,12.10
2018-11-07T13:31:10.105Z,12.10
2018-11-07T13:33:38.637Z,12.20
2018-11-07T13:36:07.273Z,12.30
2018-11-07T13:38:36.239Z,12.30
2018-11-07T13:41:04.745Z,12.30
2018-11-07T13:43:34.586Z,12.30
2018-11-07T13:46:03.222Z,12.30
2018-11-07T13:48:31.712Z,12.30
2018-11-07T13:51:00.238Z,12.30
2018-11-07T13:53:28.776Z,12.30
2018-11-07T13:55:57.292Z,12.40
2018-11-07T13:58:25.815Z,12.40
2018-11-07T14:00:54.309Z,12.30
2018-11-07T14:03:22.906Z,12.40
2018-11-07T14:05:51.516Z,12.40
2018-11-07T14:08:19.892Z,12.40
2018-11-07T14:10:48.414Z,12.40
2018-11-07T14:13:16.952Z,12.40
2018-11-07T14:15:45.603Z,12.40
2018-11-07T14:18:14.062Z,12.40
2018-11-07T14:20:42.543Z,12.40
2018-11-07T14:23:11.014Z,12.30
2018-11-07T14:25:39.884Z,12.30
2018-11-07T14:28:08.565Z,12.30
2018-11-07T14:30:36.925Z,12.30
2018-11-07T14:33:05.445Z,12.30
2018-11-07T14:35:33.979Z,12.30
2018-11-07T14:38:02.467Z,12.30
2018-11-07T14:40:31.069Z,12.40
2018-11-07T14:42:59.664Z,12.30
2018-11-07T14:45:28.171Z,12.30
2018-11-07T14:47:56.803Z,12.30
2018-11-07T14:50:25.317Z,12.40
2018-11-07T14:52:53.824Z,12.30
2018-11-07T14:55:22.417Z,12.40
2018-11-07T14:57:50.931Z,12.40
2018-11-07T15:00:19.454Z,12.40
2018-11-07T15:02:48.304Z,12.40
2018-11-07T15:05:17.705Z,12.40
2018-11-07T15:07:46.416Z,12.40
2018-11-07T15:10:16.090Z,12.40
2018-11-07T15:12:44.589Z,12.40
2018-11-07T15:15:14.733Z,12.40
2018-11-07T15:17:43.301Z,12.30
2018-11-07T15:20:13.125Z,12.40
2018-11-07T15:22:42.000Z,12.40
2018-11-07T15:25:11.791Z,12.30
2018-11-07T15:27:41.457Z,12.40
2018-11-07T15:30:11.099Z,12.40
2018-11-07T15:32:40.287Z,12.40
2018-11-07T15:35:09.569Z,12.40
2018-11-07T15:37:38.588Z,12.40
2018-11-07T15:40:09.155Z,12.40
2018-11-07T15:42:38.211Z,12.40
2018-11-07T15:45:08.283Z,12.40
2018-11-07T15:47:37.090Z,12.40
2018-11-07T15:50:11.313Z,12.40
2018-11-07T15:52:40.117Z,12.40
2018-11-07T15:55:09.113Z,12.40
2018-11-07T15:57:37.677Z,12.50
2018-11-07T16:00:08.990Z,12.50
2018-11-07T16:02:37.811Z,12.40
2018-11-07T16:05:07.289Z,12.50
2018-11-07T16:07:35.787Z,12.50
2018-11-07T16:10:04.864Z,12.50
2018-11-07T16:12:33.531Z,12.50
2018-11-07T16:15:02.188Z,12.50
2018-11-07T16:17:31.260Z,12.50
2018-11-07T16:20:00.047Z,12.40
2018-11-07T16:22:28.631Z,12.40
2018-11-07T16:24:57.315Z,12.40
2018-11-07T16:27:25.821Z,12.40
2018-11-07T16:29:54.320Z,12.40
2018-11-07T16:32:22.813Z,12.40
2018-11-07T16:34:51.303Z,12.40
2018-11-07T16:37:19.849Z,12.40
2018-11-07T16:39:48.351Z,12.40
2018-11-07T16:42:16.902Z,12.30
2018-11-07T16:44:45.497Z,12.40
2018-11-07T16:47:14.077Z,12.40
2018-11-07T16:49:42.545Z,12.40
2018-11-07T16:52:11.051Z,12.40
2018-11-07T16:54:39.548Z,12.40
2018-11-07T16:57:08.069Z,12.40
2018-11-07T16:59:36.573Z,12.40
2018-11-07T17:02:05.229Z,12.30
2018-11-07T17:04:33.808Z,12.30
2018-11-07T17:07:02.345Z,12.30
2018-11-07T17:09:30.885Z,12.20
2018-11-07T17:11:59.383Z,12.20
2018-11-07T17:14:27.943Z,12.20
2018-11-07T17:16:56.671Z,12.10
2018-11-07T17:19:25.335Z,12.10
2018-11-07T17:21:53.894Z,12.10
2018-11-07T17:24:22.620Z,12.10
2018-11-07T17:26:51.060Z,12.10
2018-11-07T17:29:19.655Z,12.10
2018-11-07T17:31:48.281Z,12.00
2018-11-07T17:34:16.835Z,12.00
2018-11-07T17:36:45.625Z,12.00
2018-11-07T17:39:14.560Z,11.90
2018-11-07T17:41:43.121Z,11.90
2018-11-07T17:44:12.045Z,11.90
2018-11-07T17:46:40.713Z,11.80
2018-11-07T17:49:09.219Z,11.90
2018-11-07T17:51:37.790Z,11.90
2018-11-07T17:54:06.311Z,11.90
2018-11-07T17:56:34.857Z,11.90
2018-11-07T17:59:03.351Z,11.80
2018-11-07T18:01:31.861Z,11.90
2018-11-07T18:06:37.975Z,11.90
2018-11-07T18:09:07.690Z,12.00
2018-11-07T18:11:36.492Z,12.00
2018-11-07T18:14:05.271Z,12.00
2018-11-07T18:16:33.971Z,12.10
2018-11-07T18:19:02.520Z,12.10
2018-11-07T18:21:31.003Z,12.10
2018-11-07T18:23:59.513Z,12.10
2018-11-07T18:26:28.177Z,12.10
2018-11-07T18:28:56.668Z,12.10
2018-11-07T18:31:25.137Z,12.00
2018-11-07T18:33:53.667Z,12.00
2018-11-07T18:36:22.151Z,12.00
2018-11-07T18:38:50.644Z,12.00
2018-11-07T18:41:19.169Z,12.00
2018-11-07T18:43:47.657Z,11.90
2018-11-07T18:46:16.117Z,11.90
2018-11-07T18:48:44.696Z,11.90
2018-11-07T18:51:13.183Z,11.90
2018-11-07T18:53:41.652Z,11.80
2018-11-07T18:56:10.135Z,11.80
2018-11-07T18:58:38.771Z,11.80
2018-11-07T19:01:07.344Z,11.70
2018-11-07T19:03:35.940Z,11.70
2018-11-07T19:06:04.733Z,11.70
2018-11-07T19:08:33.246Z,11.60
2018-11-07T19:11:02.153Z,11.60
2018-11-07T19:13:30.640Z,11.60
2018-11-07T19:15:59.714Z,11.60
2018-11-07T19:18:28.209Z,11.70
2018-11-07T19:20:56.747Z,11.70
2018-11-07T19:23:25.250Z,11.70
2018-11-07T19:25:53.743Z,11.70
2018-11-07T19:28:22.252Z,11.70
2018-11-07T19:30:50.748Z,11.70
2018-11-07T19:33:19.221Z,11.70
2018-11-07T19:35:48.242Z,11.70
2018-11-07T19:38:16.781Z,11.70
2018-11-07T19:40:45.496Z,11.70
2018-11-07T19:43:14.334Z,11.70
2018-11-07T19:45:42.854Z,11.70
2018-11-07T19:48:11.342Z,11.70
2018-11-07T19:50:39.894Z,11.70
2018-11-07T19:53:08.404Z,11.60
2018-11-07T19:55:36.925Z,11.60
2018-11-07T19:58:06.230Z,11.50
2018-11-07T20:00:34.797Z,11.50
2018-11-07T20:03:03.329Z,11.50
2018-11-07T20:05:31.815Z,11.50
2018-11-07T20:08:00.353Z,11.50
2018-11-07T20:10:28.931Z,11.50
2018-11-07T20:12:57.411Z,11.40
2018-11-07T20:15:25.921Z,11.40
2018-11-07T20:17:54.472Z,11.40
2018-11-07T20:20:22.966Z,11.40
2018-11-07T20:22:51.782Z,11.40
2018-11-07T20:25:20.447Z,11.40
2018-11-07T20:27:49.025Z,11.40
2018-11-07T20:30:18.745Z,11.40
2018-11-07T20:32:47.477Z,11.40
2018-11-07T20:35:17.239Z,11.40
2018-11-07T20:37:45.813Z,11.40
2018-11-07T20:40:15.859Z,11.40
2018-11-07T20:42:44.382Z,11.40
2018-11-07T20:45:13.743Z,11.40
2018-11-07T20:47:42.433Z,11.50
2018-11-07T20:50:13.471Z,11.50
2018-11-07T20:52:42.571Z,11.60
2018-11-07T20:55:11.864Z,11.60
2018-11-07T20:57:40.364Z,11.60
2018-11-07T21:00:11.804Z,11.60
2018-11-07T21:02:40.798Z,11.60
2018-11-07T21:05:09.680Z,11.60
2018-11-07T21:07:38.454Z,11.60
2018-11-07T21:10:09.187Z,11.60
2018-11-07T21:12:37.960Z,11.70
2018-11-07T21:15:07.577Z,11.70
2018-11-07T21:17:36.079Z,11.80
2018-11-07T21:20:04.921Z,11.80
2018-11-07T21:22:34.553Z,11.80
2018-11-07T21:25:03.058Z,11.80
2018-11-07T21:27:31.796Z,11.70
2018-11-07T21:30:00.486Z,11.70
2018-11-07T21:32:29.019Z,11.60
2018-11-07T21:34:58.001Z,11.50
2018-11-07T21:37:26.504Z,11.50
2018-11-07T21:39:55.138Z,11.40
2018-11-07T21:42:23.784Z,11.40
2018-11-07T21:44:52.299Z,11.40
2018-11-07T21:47:20.999Z,11.40
2018-11-07T21:49:49.622Z,11.40
2018-11-07T21:52:18.299Z,11.30
2018-11-07T21:54:46.971Z,11.30
2018-11-07T21:57:15.448Z,11.40
2018-11-07T21:59:44.084Z,11.30
2018-11-07T22:02:12.593Z,11.30
2018-11-07T22:04:41.329Z,11.30
2018-11-07T22:07:09.874Z,11.30
2018-11-07T22:09:38.356Z,11.30
2018-11-07T22:12:07.118Z,11.30
2018-11-07T22:14:36.215Z,11.30
2018-11-07T22:17:04.931Z,11.40
2018-11-07T22:19:33.543Z,11.40
2018-11-07T22:22:02.385Z,11.50
2018-11-07T22:24:30.976Z,11.60
2018-11-07T22:26:59.492Z,11.60
2018-11-07T22:29:28.208Z,11.70
2018-11-07T22:31:56.771Z,11.80
2018-11-07T22:34:25.409Z,11.80
2018-11-07T22:36:53.925Z,11.80
2018-11-07T22:39:22.440Z,11.90
2018-11-07T22:41:50.930Z,11.90
2018-11-07T22:44:19.664Z,11.90
2018-11-07T22:46:48.188Z,11.80
2018-11-07T22:49:17.053Z,11.90
2018-11-07T22:51:45.656Z,11.80
2018-11-07T22:54:14.214Z,11.70
2018-11-07T22:56:42.822Z,11.70
2018-11-07T22:59:12.057Z,11.70
2018-11-07T23:01:41.668Z,11.80
2018-11-07T23:04:10.727Z,11.70
2018-11-07T23:06:39.937Z,11.80
2018-11-07T23:09:11.321Z,11.80
2018-11-07T23:11:42.216Z,11.80
2018-11-07T23:14:12.332Z,11.80
2018-11-07T23:16:42.079Z,11.80
2018-11-07T23:19:10.886Z,11.80
2018-11-07T23:21:39.841Z,11.70
2018-11-07T23:24:09.181Z,11.60
2018-11-07T23:26:37.679Z,11.50
2018-11-07T23:29:06.167Z,11.40
2018-11-07T23:31:34.665Z,11.30
2018-11-07T23:34:03.197Z,11.30
2018-11-07T23:36:32.428Z,11.20
2018-11-07T23:39:01.305Z,11.20
2018-11-07T23:41:29.793Z,11.20
2018-11-07T23:43:58.297Z,11.20
2018-11-07T23:46:26.802Z,11.20
2018-11-07T23:48:55.393Z,11.20
2018-11-07T23:51:23.870Z,11.20
2018-11-07T23:53:53.129Z,11.20
2018-11-07T23:56:22.399Z,11.20
2018-11-07T23:58:51.178Z,11.20
